Asukamaru — JG5536 — position and weather

sailwx.info

Track history (hours):
 
Tides and Currents Weather Stations Pressure Air Temp Water Temp Dewpoint Dewpoint Depression Visibility Wind Speed Wind Dir Waves Ship Positions

Asukamaru

Last reported at 2015-Sep-03 03:33 UTC. Time now 2015-Sep-03 04:31 UTC.
Position N 35°38' E 139°45'.

Length 31 m; draft 3 m.

Type: Tug. MMSI: 431001145.

Date/timePositionNaut miles runAvg speedWind from/ knotsBaromVisibWave heightAir tempDewpointWater temp
2015-Sep-03 03:33N 35°38' E 139°45'0 0.0
2015-Sep-03 02:33N 35°38' E 139°45'0 0.0
2015-Sep-03 01:33N 35°38' E 139°45'0 0.0
2015-Sep-03 00:33N 35°38' E 139°45'0 0.0
2015-Sep-02 23:34N 35°38' E 139°45'3 2.6
2015-Sep-02 22:33N 35°36' E 139°47'2 2.3
2015-Sep-02 21:33N 35°34' E 139°49'4 3.9
2015-Sep-02 20:33N 35°37' E 139°46'1 1.1
2015-Sep-02 19:34N 35°38' E 139°45'0 0.0
2015-Sep-02 18:33N 35°38' E 139°45'0 0.0
2015-Sep-02 17:33N 35°38' E 139°45'0 0.0
2015-Sep-02 16:34N 35°38' E 139°45'0 0.0
2015-Sep-02 15:34N 35°38' E 139°45'0 0.0
2015-Sep-02 14:33N 35°38' E 139°45'0 0.0
2015-Sep-02 13:34N 35°38' E 139°45'0 0.0
2015-Sep-02 12:34N 35°38' E 139°45'0 0.0
2015-Sep-02 11:34N 35°38' E 139°45'0 0.0
2015-Sep-02 10:34N 35°38' E 139°45'0 0.0
2015-Sep-02 09:34N 35°38' E 139°45'0 0.0
2015-Sep-02 08:34N 35°38' E 139°45'0 0.0
2015-Sep-02 07:34N 35°38' E 139°45'0 0.0
2015-Sep-02 06:33N 35°38' E 139°46'0 0.0
2015-Sep-02 05:33N 35°38' E 139°45'0 0.0
2015-Sep-02 04:32N 35°38' E 139°45'0 0.0
2015-Sep-02 03:32N 35°38' E 139°45'0 0.0
2015-Sep-02 02:33N 35°38' E 139°45'0 0.0
2015-Sep-02 01:33N 35°38' E 139°45'0 0.0
2015-Sep-02 00:33N 35°38' E 139°45'0 0.0
2015-Sep-01 23:34N 35°38' E 139°45'0 0.0
2015-Sep-01 22:33N 35°38' E 139°45'0 0.0
2015-Sep-01 21:34N 35°38' E 139°45'0 0.0
2015-Sep-01 20:33N 35°38' E 139°45'0 0.0
2015-Sep-01 19:34N 35°38' E 139°45'0 0.0
2015-Sep-01 18:33N 35°38' E 139°45'0 0.0
2015-Sep-01 17:33N 35°38' E 139°45'0 0.0
2015-Sep-01 16:33N 35°38' E 139°45'2 1.8
2015-Sep-01 15:34N 35°37' E 139°46'2 2.0
2015-Sep-01 14:33N 35°35' E 139°48'1 1.5
2015-Sep-01 13:33N 35°36' E 139°46'2 1.8
2015-Sep-01 12:34N 35°35' E 139°48'0 0.2
2015-Sep-01 11:34N 35°35' E 139°48'1 1.1
2015-Sep-01 10:34N 35°35' E 139°47'2 1.9
2015-Sep-01 09:33N 35°37' E 139°46'1 1.0
2015-Sep-01 08:33N 35°38' E 139°45'0 0.0
2015-Sep-01 07:33N 35°38' E 139°45'0 0.0
2015-Sep-01 06:33N 35°38' E 139°45'0 0.0
2015-Sep-01 05:33N 35°38' E 139°45'0 0.0
2015-Sep-01 04:33N 35°38' E 139°45'0 0.0
2015-Sep-01 03:33N 35°38' E 139°45'2 2.3
2015-Sep-01 02:34N 35°36' E 139°46'0 0.4
2015-Sep-01 01:33N 35°36' E 139°46'0 0.3
2015-Sep-01 00:33N 35°36' E 139°46'1 1.1
2015-Aug-31 23:34N 35°36' E 139°47'3 2.9
2015-Aug-31 22:33N 35°38' E 139°45'0 0.0
2015-Aug-31 21:33N 35°38' E 139°45'0 0.0
2015-Aug-31 20:33N 35°38' E 139°45'0 0.0
2015-Aug-31 19:33N 35°38' E 139°45'0 0.0
2015-Aug-31 18:33N 35°38' E 139°45'0 0.0
2015-Aug-31 17:33N 35°38' E 139°45'0 0.0
2015-Aug-31 16:34N 35°38' E 139°45'0 0.0
2015-Aug-31 15:34N 35°38' E 139°45'0 0.0
2015-Aug-31 14:33N 35°38' E 139°45'0 0.0
2015-Aug-31 13:33N 35°38' E 139°45'0 0.0
2015-Aug-31 12:33N 35°38' E 139°45'0 0.0
2015-Aug-31 11:34N 35°38' E 139°45'0 0.1
2015-Aug-31 10:33N 35°38' E 139°46'0 0.0
2015-Aug-31 09:33N 35°38' E 139°45'0 0.0
2015-Aug-31 08:34N 35°38' E 139°45'0 0.0
2015-Aug-31 07:33N 35°38' E 139°45'0 0.0
2015-Aug-31 06:34N 35°38' E 139°45'0 0.0
2015-Aug-31 05:34N 35°38' E 139°45'0 0.0
2015-Aug-31 04:34N 35°38' E 139°45'0 0.0
2015-Aug-31 03:34N 35°38' E 139°45'0 0.0
2015-Aug-31 02:33N 35°38' E 139°45'0 0.0
2015-Aug-31 01:34N 35°38' E 139°45'0 0.0
2015-Aug-31 00:33N 35°38' E 139°45'0 0.0
2015-Aug-30 23:33N 35°38' E 139°45'0 0.0
2015-Aug-30 22:34N 35°38' E 139°45'2 2.2
2015-Aug-30 21:33N 35°36' E 139°46'0 0.5
2015-Aug-30 20:33N 35°36' E 139°47'2 2.4
2015-Aug-30 19:33N 35°38' E 139°45'0 0.0
2015-Aug-30 18:33N 35°38' E 139°45'0 0.0
2015-Aug-30 17:33N 35°38' E 139°45'0 0.0
2015-Aug-30 16:33N 35°38' E 139°45'0 0.0
2015-Aug-30 15:33N 35°38' E 139°45'0 0.0
2015-Aug-30 14:33N 35°38' E 139°45'0 0.0
2015-Aug-30 13:33N 35°38' E 139°45'0 0.0
2015-Aug-30 12:33N 35°38' E 139°45'0 0.0
2015-Aug-30 11:33N 35°38' E 139°45'0 0.0
2015-Aug-30 10:33N 35°38' E 139°45'0 0.0
2015-Aug-30 09:33N 35°38' E 139°45'0 0.0
2015-Aug-30 08:33N 35°38' E 139°45'0 0.0
2015-Aug-30 07:33N 35°38' E 139°45'0 0.0
2015-Aug-30 06:33N 35°38' E 139°45'0 0.0
2015-Aug-30 05:33N 35°38' E 139°45'0 0.0
2015-Aug-30 04:33N 35°38' E 139°45'0 0.0
2015-Aug-30 03:33N 35°38' E 139°45'0 0.0
2015-Aug-30 02:33N 35°38' E 139°45'0 0.0
2015-Aug-30 01:33N 35°38' E 139°45'0 0.0
2015-Aug-30 00:33N 35°38' E 139°45'0 0.0
2015-Aug-29 23:33N 35°38' E 139°45'0 0.0
2015-Aug-29 22:33N 35°38' E 139°45'0 0.0
2015-Aug-29 21:33N 35°38' E 139°45'0 0.0
2015-Aug-29 20:33N 35°38' E 139°45'0 0.0
2015-Aug-29 19:33N 35°38' E 139°45'0 0.0
2015-Aug-29 18:33N 35°38' E 139°45'0 0.0
2015-Aug-29 17:33N 35°38' E 139°45'0 0.0
2015-Aug-29 16:33N 35°38' E 139°45'0 0.0
2015-Aug-29 15:33N 35°38' E 139°45'0 0.0
2015-Aug-29 14:33N 35°38' E 139°45'0 0.0
2015-Aug-29 13:33N 35°38' E 139°45'0 0.0
2015-Aug-29 12:33N 35°38' E 139°45'0 0.0
2015-Aug-29 11:33N 35°38' E 139°45'0 0.0
2015-Aug-29 10:33N 35°38' E 139°45'0 0.0
2015-Aug-29 09:33N 35°38' E 139°45'0 0.0
2015-Aug-29 08:33N 35°38' E 139°45'0 0.1
2015-Aug-29 07:33N 35°38' E 139°46'0 0.0
2015-Aug-29 06:33N 35°38' E 139°45'0 0.0
2015-Aug-29 05:33N 35°38' E 139°45'0 0.0
2015-Aug-29 04:33N 35°38' E 139°45'0 0.0
2015-Aug-29 03:33N 35°38' E 139°45'0 0.0
2015-Aug-29 02:33N 35°38' E 139°45'0 0.0
2015-Aug-29 01:33N 35°38' E 139°45'0 0.0
2015-Aug-29 00:33N 35°38' E 139°45'0 0.0
2015-Aug-28 23:33N 35°38' E 139°45'2 1.6
2015-Aug-28 22:33N 35°37' E 139°46'4 3.8
2015-Aug-28 21:34N 35°34' E 139°49'3 2.5
2015-Aug-28 20:33N 35°35' E 139°47'0 0.0
2015-Aug-28 19:33N 35°35' E 139°47'0 0.0
2015-Aug-28 18:33N 35°35' E 139°47'0 0.0
2015-Aug-28 17:33N 35°35' E 139°47'2 2.2
2015-Aug-28 16:33N 35°37' E 139°46'0 0.3
2015-Aug-28 15:33N 35°38' E 139°46'1 1.3
2015-Aug-28 14:33N 35°37' E 139°47'3 3.4
2015-Aug-28 13:33N 35°34' E 139°49'2 2.2
2015-Aug-28 12:33N 35°36' E 139°47'3 3.0
2015-Aug-28 11:33N 35°38' E 139°45'0 0.2
2015-Aug-28 10:33N 35°38' E 139°46'0 0.2
2015-Aug-28 09:33N 35°38' E 139°46'2 2.1
2015-Aug-28 08:33N 35°36' E 139°46'2 2.4
2015-Aug-28 07:33N 35°38' E 139°45'0 0.0
2015-Aug-28 06:33N 35°38' E 139°45'0 0.0
2015-Aug-28 05:33N 35°38' E 139°45'3 2.6
2015-Aug-28 04:34N 35°36' E 139°47'1 0.9
2015-Aug-28 03:33N 35°37' E 139°47'1 0.8
2015-Aug-28 02:33N 35°37' E 139°46'2 1.8
2015-Aug-28 01:33N 35°38' E 139°45'0 0.0
2015-Aug-28 00:33N 35°38' E 139°45'0 0.0
2015-Aug-27 23:33N 35°38' E 139°45'0 0.0
2015-Aug-27 22:33N 35°38' E 139°45'0 0.0
2015-Aug-27 21:33N 35°38' E 139°45'0 0.0
2015-Aug-27 20:33N 35°38' E 139°45'0 0.0
2015-Aug-27 19:33N 35°38' E 139°45'0 0.0
2015-Aug-27 18:33N 35°38' E 139°45'0 0.0
2015-Aug-27 17:33N 35°38' E 139°45'0 0.0
2015-Aug-27 16:33N 35°38' E 139°45'0 0.0
2015-Aug-27 15:33N 35°38' E 139°45'0 0.0
2015-Aug-27 14:33N 35°38' E 139°45'0 0.0
2015-Aug-27 13:33N 35°38' E 139°45'0 0.0
2015-Aug-27 12:33N 35°38' E 139°45'0 0.0
2015-Aug-27 11:33N 35°38' E 139°45'0 0.0
2015-Aug-27 10:33N 35°38' E 139°45'3 3.1
2015-Aug-27 09:34N 35°36' E 139°47'1 0.9
2015-Aug-27 08:33N 35°36' E 139°46'2 2.2
2015-Aug-27 07:33N 35°38' E 139°45'0 0.0
2015-Aug-27 06:33N 35°38' E 139°45'0 0.0
2015-Aug-27 05:33N 35°38' E 139°45'0 0.0
2015-Aug-27 04:33N 35°38' E 139°45'0 0.0
2015-Aug-27 03:33N 35°38' E 139°45'0 0.0
2015-Aug-27 02:33N 35°38' E 139°45'0 0.0
2015-Aug-27 01:33N 35°38' E 139°45'3 2.7
2015-Aug-27 00:34N 35°36' E 139°47'1 0.5
2015-Aug-26 23:33N 35°36' E 139°46'0 0.3
2015-Aug-26 22:33N 35°36' E 139°46'2 2.0
2015-Aug-26 21:33N 35°35' E 139°48'4 4.2
2015-Aug-26 20:33N 35°38' E 139°45'0 0.0
2015-Aug-26 19:33N 35°38' E 139°45'0 0.0
2015-Aug-26 18:33N 35°38' E 139°45'0 0.0
2015-Aug-26 17:33N 35°38' E 139°45'0 0.0
2015-Aug-26 16:33N 35°38' E 139°45'0 0.0
2015-Aug-26 15:33N 35°38' E 139°45'0 0.0
2015-Aug-26 14:33N 35°38' E 139°45'0 0.0
2015-Aug-26 13:33N 35°38' E 139°45'0 0.0
2015-Aug-26 12:33N 35°38' E 139°45'0 0.0
2015-Aug-26 11:33N 35°38' E 139°45'0 0.0
2015-Aug-26 10:33N 35°38' E 139°45'0 0.0
2015-Aug-26 09:33N 35°38' E 139°45'0 0.0
2015-Aug-26 08:33N 35°38' E 139°45'0 0.0
2015-Aug-26 07:33N 35°38' E 139°45'0 0.0
2015-Aug-26 06:33N 35°38' E 139°45'0 0.0
2015-Aug-26 05:33N 35°38' E 139°45'0 0.0
2015-Aug-26 04:33N 35°38' E 139°45'0 0.0
2015-Aug-26 03:33N 35°38' E 139°45'0 0.0
2015-Aug-26 02:33N 35°38' E 139°45'0 0.0
2015-Aug-26 01:33N 35°38' E 139°45'0 0.0
2015-Aug-26 00:33N 35°38' E 139°45'0 0.0
2015-Aug-25 23:33N 35°38' E 139°45'0 0.0
2015-Aug-25 22:33N 35°38' E 139°45'0 0.0
2015-Aug-25 21:33N 35°38' E 139°45'0 0.0
2015-Aug-25 20:33N 35°38' E 139°45'0 0.0
2015-Aug-25 19:33N 35°38' E 139°45'0 0.0
2015-Aug-25 18:33N 35°38' E 139°45'0 0.0
2015-Aug-25 17:33N 35°38' E 139°45'0 0.0
2015-Aug-25 16:33N 35°38' E 139°45'0 0.0
2015-Aug-25 15:33N 35°38' E 139°45'0 0.0
2015-Aug-25 14:33N 35°38' E 139°45'0 0.0
2015-Aug-25 13:33N 35°38' E 139°45'0 0.0
2015-Aug-25 12:33N 35°38' E 139°45'0 0.0
2015-Aug-25 11:33N 35°38' E 139°45'0 0.0
2015-Aug-25 10:33N 35°38' E 139°45'0 0.0
2015-Aug-25 09:33N 35°38' E 139°45'0 0.0
2015-Aug-25 08:33N 35°38' E 139°45'0 0.0
2015-Aug-25 07:33N 35°38' E 139°45'0 0.0
2015-Aug-25 06:33N 35°38' E 139°45'0 0.0
2015-Aug-25 05:33N 35°38' E 139°45'0 0.0
2015-Aug-25 04:33N 35°38' E 139°45'0 0.0
2015-Aug-25 03:33N 35°38' E 139°45'0 0.0
2015-Aug-25 02:33N 35°38' E 139°45'0 0.0
2015-Aug-25 01:33N 35°38' E 139°45'0 0.0
2015-Aug-25 00:33N 35°38' E 139°45'0 0.0
2015-Aug-24 23:33N 35°38' E 139°45'0 0.0
2015-Aug-24 22:33N 35°38' E 139°45'0 0.0
2015-Aug-24 21:33N 35°38' E 139°45'0 0.0
2015-Aug-24 20:33N 35°38' E 139°45'0 0.0
2015-Aug-24 19:33N 35°38' E 139°45'0 0.0
2015-Aug-24 18:33N 35°38' E 139°45'0 0.0
2015-Aug-24 17:33N 35°38' E 139°45'0 0.0
2015-Aug-24 16:33N 35°38' E 139°45'0 0.0
2015-Aug-24 15:33N 35°38' E 139°45'2 2.3
2015-Aug-24 14:33N 35°36' E 139°46'1 1.0
2015-Aug-24 13:33N 35°35' E 139°47'1 0.5
2015-Aug-24 12:33N 35°35' E 139°47'0 0.0
2015-Aug-24 11:33N 35°35' E 139°47'1 0.6
2015-Aug-24 10:33N 35°36' E 139°46'0 0.0
2015-Aug-24 09:34N 35°36' E 139°46'1 0.6
2015-Aug-24 08:33N 35°36' E 139°47'2 1.9
2015-Aug-24 07:33N 35°37' E 139°46'1 1.0
2015-Aug-24 06:33N 35°38' E 139°45'0 0.0
2015-Aug-24 05:33N 35°38' E 139°45'0 0.0
2015-Aug-24 04:33N 35°38' E 139°45'  
Track history (hours):
 
Tides and Currents Weather Stations Pressure Air Temp Water Temp Dewpoint Dewpoint Depression Visibility Wind Speed Wind Dir Waves Ship Positions

Asukamaru

Last reported at 2015-Sep-03 03:33 UTC. Time now 2015-Sep-03 04:31 UTC.
Position N 35°38' E 139°45'.

Length 31 m; draft 3 m.

Type: Tug. MMSI: 431001145.

Date/timePositionNaut miles runAvg speedWind from/ knotsBaromVisibWave heightAir tempDewpointWater temp
2015-Sep-03 03:33N 35°38' E 139°45'0 0.0
2015-Sep-03 02:33N 35°38' E 139°45'0 0.0
2015-Sep-03 01:33N 35°38' E 139°45'0 0.0
2015-Sep-03 00:33N 35°38' E 139°45'0 0.0
2015-Sep-02 23:34N 35°38' E 139°45'3 2.6
2015-Sep-02 22:33N 35°36' E 139°47'2 2.3
2015-Sep-02 21:33N 35°34' E 139°49'4 3.9
2015-Sep-02 20:33N 35°37' E 139°46'1 1.1
2015-Sep-02 19:34N 35°38' E 139°45'0 0.0
2015-Sep-02 18:33N 35°38' E 139°45'0 0.0
2015-Sep-02 17:33N 35°38' E 139°45'0 0.0
2015-Sep-02 16:34N 35°38' E 139°45'0 0.0
2015-Sep-02 15:34N 35°38' E 139°45'0 0.0
2015-Sep-02 14:33N 35°38' E 139°45'0 0.0
2015-Sep-02 13:34N 35°38' E 139°45'0 0.0
2015-Sep-02 12:34N 35°38' E 139°45'0 0.0
2015-Sep-02 11:34N 35°38' E 139°45'0 0.0
2015-Sep-02 10:34N 35°38' E 139°45'0 0.0
2015-Sep-02 09:34N 35°38' E 139°45'0 0.0
2015-Sep-02 08:34N 35°38' E 139°45'0 0.0
2015-Sep-02 07:34N 35°38' E 139°45'0 0.0
2015-Sep-02 06:33N 35°38' E 139°46'0 0.0
2015-Sep-02 05:33N 35°38' E 139°45'0 0.0
2015-Sep-02 04:32N 35°38' E 139°45'0 0.0
2015-Sep-02 03:32N 35°38' E 139°45'0 0.0
2015-Sep-02 02:33N 35°38' E 139°45'0 0.0
2015-Sep-02 01:33N 35°38' E 139°45'0 0.0
2015-Sep-02 00:33N 35°38' E 139°45'0 0.0
2015-Sep-01 23:34N 35°38' E 139°45'0 0.0
2015-Sep-01 22:33N 35°38' E 139°45'0 0.0
2015-Sep-01 21:34N 35°38' E 139°45'0 0.0
2015-Sep-01 20:33N 35°38' E 139°45'0 0.0
2015-Sep-01 19:34N 35°38' E 139°45'0 0.0
2015-Sep-01 18:33N 35°38' E 139°45'0 0.0
2015-Sep-01 17:33N 35°38' E 139°45'0 0.0
2015-Sep-01 16:33N 35°38' E 139°45'2 1.8
2015-Sep-01 15:34N 35°37' E 139°46'2 2.0
2015-Sep-01 14:33N 35°35' E 139°48'1 1.5
2015-Sep-01 13:33N 35°36' E 139°46'2 1.8
2015-Sep-01 12:34N 35°35' E 139°48'0 0.2
2015-Sep-01 11:34N 35°35' E 139°48'1 1.1
2015-Sep-01 10:34N 35°35' E 139°47'2 1.9
2015-Sep-01 09:33N 35°37' E 139°46'1 1.0
2015-Sep-01 08:33N 35°38' E 139°45'0 0.0
2015-Sep-01 07:33N 35°38' E 139°45'0 0.0
2015-Sep-01 06:33N 35°38' E 139°45'0 0.0
2015-Sep-01 05:33N 35°38' E 139°45'0 0.0
2015-Sep-01 04:33N 35°38' E 139°45'0 0.0
2015-Sep-01 03:33N 35°38' E 139°45'2 2.3
2015-Sep-01 02:34N 35°36' E 139°46'0 0.4
2015-Sep-01 01:33N 35°36' E 139°46'0 0.3
2015-Sep-01 00:33N 35°36' E 139°46'1 1.1
2015-Aug-31 23:34N 35°36' E 139°47'3 2.9
2015-Aug-31 22:33N 35°38' E 139°45'0 0.0
2015-Aug-31 21:33N 35°38' E 139°45'0 0.0
2015-Aug-31 20:33N 35°38' E 139°45'0 0.0
2015-Aug-31 19:33N 35°38' E 139°45'0 0.0
2015-Aug-31 18:33N 35°38' E 139°45'0 0.0
2015-Aug-31 17:33N 35°38' E 139°45'0 0.0
2015-Aug-31 16:34N 35°38' E 139°45'0 0.0
2015-Aug-31 15:34N 35°38' E 139°45'0 0.0
2015-Aug-31 14:33N 35°38' E 139°45'0 0.0
2015-Aug-31 13:33N 35°38' E 139°45'0 0.0
2015-Aug-31 12:33N 35°38' E 139°45'0 0.0
2015-Aug-31 11:34N 35°38' E 139°45'0 0.1
2015-Aug-31 10:33N 35°38' E 139°46'0 0.0
2015-Aug-31 09:33N 35°38' E 139°45'0 0.0
2015-Aug-31 08:34N 35°38' E 139°45'0 0.0
2015-Aug-31 07:33N 35°38' E 139°45'0 0.0
2015-Aug-31 06:34N 35°38' E 139°45'0 0.0
2015-Aug-31 05:34N 35°38' E 139°45'0 0.0
2015-Aug-31 04:34N 35°38' E 139°45'0 0.0
2015-Aug-31 03:34N 35°38' E 139°45'0 0.0
2015-Aug-31 02:33N 35°38' E 139°45'0 0.0
2015-Aug-31 01:34N 35°38' E 139°45'0 0.0
2015-Aug-31 00:33N 35°38' E 139°45'0 0.0
2015-Aug-30 23:33N 35°38' E 139°45'0 0.0
2015-Aug-30 22:34N 35°38' E 139°45'2 2.2
2015-Aug-30 21:33N 35°36' E 139°46'0 0.5
2015-Aug-30 20:33N 35°36' E 139°47'2 2.4
2015-Aug-30 19:33N 35°38' E 139°45'0 0.0
2015-Aug-30 18:33N 35°38' E 139°45'0 0.0
2015-Aug-30 17:33N 35°38' E 139°45'0 0.0
2015-Aug-30 16:33N 35°38' E 139°45'0 0.0
2015-Aug-30 15:33N 35°38' E 139°45'0 0.0
2015-Aug-30 14:33N 35°38' E 139°45'0 0.0
2015-Aug-30 13:33N 35°38' E 139°45'0 0.0
2015-Aug-30 12:33N 35°38' E 139°45'0 0.0
2015-Aug-30 11:33N 35°38' E 139°45'0 0.0
2015-Aug-30 10:33N 35°38' E 139°45'0 0.0
2015-Aug-30 09:33N 35°38' E 139°45'0 0.0
2015-Aug-30 08:33N 35°38' E 139°45'0 0.0
2015-Aug-30 07:33N 35°38' E 139°45'0 0.0
2015-Aug-30 06:33N 35°38' E 139°45'0 0.0
2015-Aug-30 05:33N 35°38' E 139°45'0 0.0
2015-Aug-30 04:33N 35°38' E 139°45'0 0.0
2015-Aug-30 03:33N 35°38' E 139°45'0 0.0
2015-Aug-30 02:33N 35°38' E 139°45'0 0.0
2015-Aug-30 01:33N 35°38' E 139°45'0 0.0
2015-Aug-30 00:33N 35°38' E 139°45'0 0.0
2015-Aug-29 23:33N 35°38' E 139°45'0 0.0
2015-Aug-29 22:33N 35°38' E 139°45'0 0.0
2015-Aug-29 21:33N 35°38' E 139°45'0 0.0
2015-Aug-29 20:33N 35°38' E 139°45'0 0.0
2015-Aug-29 19:33N 35°38' E 139°45'0 0.0
2015-Aug-29 18:33N 35°38' E 139°45'0 0.0
2015-Aug-29 17:33N 35°38' E 139°45'0 0.0
2015-Aug-29 16:33N 35°38' E 139°45'0 0.0
2015-Aug-29 15:33N 35°38' E 139°45'0 0.0
2015-Aug-29 14:33N 35°38' E 139°45'0 0.0
2015-Aug-29 13:33N 35°38' E 139°45'0 0.0
2015-Aug-29 12:33N 35°38' E 139°45'0 0.0
2015-Aug-29 11:33N 35°38' E 139°45'0 0.0
2015-Aug-29 10:33N 35°38' E 139°45'0 0.0
2015-Aug-29 09:33N 35°38' E 139°45'0 0.0
2015-Aug-29 08:33N 35°38' E 139°45'0 0.1
2015-Aug-29 07:33N 35°38' E 139°46'0 0.0
2015-Aug-29 06:33N 35°38' E 139°45'0 0.0
2015-Aug-29 05:33N 35°38' E 139°45'0 0.0
2015-Aug-29 04:33N 35°38' E 139°45'0 0.0
2015-Aug-29 03:33N 35°38' E 139°45'0 0.0
2015-Aug-29 02:33N 35°38' E 139°45'0 0.0
2015-Aug-29 01:33N 35°38' E 139°45'0 0.0
2015-Aug-29 00:33N 35°38' E 139°45'0 0.0
2015-Aug-28 23:33N 35°38' E 139°45'2 1.6
2015-Aug-28 22:33N 35°37' E 139°46'4 3.8
2015-Aug-28 21:34N 35°34' E 139°49'3 2.5
2015-Aug-28 20:33N 35°35' E 139°47'0 0.0
2015-Aug-28 19:33N 35°35' E 139°47'0 0.0
2015-Aug-28 18:33N 35°35' E 139°47'0 0.0
2015-Aug-28 17:33N 35°35' E 139°47'2 2.2
2015-Aug-28 16:33N 35°37' E 139°46'0 0.3
2015-Aug-28 15:33N 35°38' E 139°46'1 1.3
2015-Aug-28 14:33N 35°37' E 139°47'3 3.4
2015-Aug-28 13:33N 35°34' E 139°49'2 2.2
2015-Aug-28 12:33N 35°36' E 139°47'3 3.0
2015-Aug-28 11:33N 35°38' E 139°45'0 0.2
2015-Aug-28 10:33N 35°38' E 139°46'0 0.2
2015-Aug-28 09:33N 35°38' E 139°46'2 2.1
2015-Aug-28 08:33N 35°36' E 139°46'2 2.4
2015-Aug-28 07:33N 35°38' E 139°45'0 0.0
2015-Aug-28 06:33N 35°38' E 139°45'0 0.0
2015-Aug-28 05:33N 35°38' E 139°45'3 2.6
2015-Aug-28 04:34N 35°36' E 139°47'1 0.9
2015-Aug-28 03:33N 35°37' E 139°47'1 0.8
2015-Aug-28 02:33N 35°37' E 139°46'2 1.8
2015-Aug-28 01:33N 35°38' E 139°45'0 0.0
2015-Aug-28 00:33N 35°38' E 139°45'0 0.0
2015-Aug-27 23:33N 35°38' E 139°45'0 0.0
2015-Aug-27 22:33N 35°38' E 139°45'0 0.0
2015-Aug-27 21:33N 35°38' E 139°45'0 0.0
2015-Aug-27 20:33N 35°38' E 139°45'0 0.0
2015-Aug-27 19:33N 35°38' E 139°45'0 0.0
2015-Aug-27 18:33N 35°38' E 139°45'0 0.0
2015-Aug-27 17:33N 35°38' E 139°45'0 0.0
2015-Aug-27 16:33N 35°38' E 139°45'0 0.0
2015-Aug-27 15:33N 35°38' E 139°45'0 0.0
2015-Aug-27 14:33N 35°38' E 139°45'0 0.0
2015-Aug-27 13:33N 35°38' E 139°45'0 0.0
2015-Aug-27 12:33N 35°38' E 139°45'0 0.0
2015-Aug-27 11:33N 35°38' E 139°45'0 0.0
2015-Aug-27 10:33N 35°38' E 139°45'3 3.1
2015-Aug-27 09:34N 35°36' E 139°47'1 0.9
2015-Aug-27 08:33N 35°36' E 139°46'2 2.2
2015-Aug-27 07:33N 35°38' E 139°45'0 0.0
2015-Aug-27 06:33N 35°38' E 139°45'0 0.0
2015-Aug-27 05:33N 35°38' E 139°45'0 0.0
2015-Aug-27 04:33N 35°38' E 139°45'0 0.0
2015-Aug-27 03:33N 35°38' E 139°45'0 0.0
2015-Aug-27 02:33N 35°38' E 139°45'0 0.0
2015-Aug-27 01:33N 35°38' E 139°45'3 2.7
2015-Aug-27 00:34N 35°36' E 139°47'1 0.5
2015-Aug-26 23:33N 35°36' E 139°46'0 0.3
2015-Aug-26 22:33N 35°36' E 139°46'2 2.0
2015-Aug-26 21:33N 35°35' E 139°48'4 4.2
2015-Aug-26 20:33N 35°38' E 139°45'0 0.0
2015-Aug-26 19:33N 35°38' E 139°45'0 0.0
2015-Aug-26 18:33N 35°38' E 139°45'0 0.0
2015-Aug-26 17:33N 35°38' E 139°45'0 0.0
2015-Aug-26 16:33N 35°38' E 139°45'0 0.0
2015-Aug-26 15:33N 35°38' E 139°45'0 0.0
2015-Aug-26 14:33N 35°38' E 139°45'0 0.0
2015-Aug-26 13:33N 35°38' E 139°45'0 0.0
2015-Aug-26 12:33N 35°38' E 139°45'0 0.0
2015-Aug-26 11:33N 35°38' E 139°45'0 0.0
2015-Aug-26 10:33N 35°38' E 139°45'0 0.0
2015-Aug-26 09:33N 35°38' E 139°45'0 0.0
2015-Aug-26 08:33N 35°38' E 139°45'0 0.0
2015-Aug-26 07:33N 35°38' E 139°45'0 0.0
2015-Aug-26 06:33N 35°38' E 139°45'0 0.0
2015-Aug-26 05:33N 35°38' E 139°45'0 0.0
2015-Aug-26 04:33N 35°38' E 139°45'0 0.0
2015-Aug-26 03:33N 35°38' E 139°45'0 0.0
2015-Aug-26 02:33N 35°38' E 139°45'0 0.0
2015-Aug-26 01:33N 35°38' E 139°45'0 0.0
2015-Aug-26 00:33N 35°38' E 139°45'0 0.0
2015-Aug-25 23:33N 35°38' E 139°45'0 0.0
2015-Aug-25 22:33N 35°38' E 139°45'0 0.0
2015-Aug-25 21:33N 35°38' E 139°45'0 0.0
2015-Aug-25 20:33N 35°38' E 139°45'0 0.0
2015-Aug-25 19:33N 35°38' E 139°45'0 0.0
2015-Aug-25 18:33N 35°38' E 139°45'0 0.0
2015-Aug-25 17:33N 35°38' E 139°45'0 0.0
2015-Aug-25 16:33N 35°38' E 139°45'0 0.0
2015-Aug-25 15:33N 35°38' E 139°45'0 0.0
2015-Aug-25 14:33N 35°38' E 139°45'0 0.0
2015-Aug-25 13:33N 35°38' E 139°45'0 0.0
2015-Aug-25 12:33N 35°38' E 139°45'0 0.0
2015-Aug-25 11:33N 35°38' E 139°45'0 0.0
2015-Aug-25 10:33N 35°38' E 139°45'0 0.0
2015-Aug-25 09:33N 35°38' E 139°45'0 0.0
2015-Aug-25 08:33N 35°38' E 139°45'0 0.0
2015-Aug-25 07:33N 35°38' E 139°45'0 0.0
2015-Aug-25 06:33N 35°38' E 139°45'0 0.0
2015-Aug-25 05:33N 35°38' E 139°45'0 0.0
2015-Aug-25 04:33N 35°38' E 139°45'0 0.0
2015-Aug-25 03:33N 35°38' E 139°45'0 0.0
2015-Aug-25 02:33N 35°38' E 139°45'0 0.0
2015-Aug-25 01:33N 35°38' E 139°45'0 0.0
2015-Aug-25 00:33N 35°38' E 139°45'0 0.0
2015-Aug-24 23:33N 35°38' E 139°45'0 0.0
2015-Aug-24 22:33N 35°38' E 139°45'0 0.0
2015-Aug-24 21:33N 35°38' E 139°45'0 0.0
2015-Aug-24 20:33N 35°38' E 139°45'0 0.0
2015-Aug-24 19:33N 35°38' E 139°45'0 0.0
2015-Aug-24 18:33N 35°38' E 139°45'0 0.0
2015-Aug-24 17:33N 35°38' E 139°45'0 0.0
2015-Aug-24 16:33N 35°38' E 139°45'0 0.0
2015-Aug-24 15:33N 35°38' E 139°45'2 2.3
2015-Aug-24 14:33N 35°36' E 139°46'1 1.0
2015-Aug-24 13:33N 35°35' E 139°47'1 0.5
2015-Aug-24 12:33N 35°35' E 139°47'0 0.0
2015-Aug-24 11:33N 35°35' E 139°47'1 0.6
2015-Aug-24 10:33N 35°36' E 139°46'0 0.0
2015-Aug-24 09:34N 35°36' E 139°46'1 0.6
2015-Aug-24 08:33N 35°36' E 139°47'2 1.9
2015-Aug-24 07:33N 35°37' E 139°46'1 1.0
2015-Aug-24 06:33N 35°38' E 139°45'0 0.0
2015-Aug-24 05:33N 35°38' E 139°45'0 0.0
2015-Aug-24 04:33N 35°38' E 139°45'  

Dump ship's entire track history